createdAt,value
2018-11-06T00:00:57.778Z,7.90
2018-11-06T00:03:31.539Z,7.90
2018-11-06T00:06:05.316Z,7.80
2018-11-06T00:08:39.135Z,7.80
2018-11-06T00:11:12.749Z,7.80
2018-11-06T00:13:46.515Z,7.80
2018-11-06T00:16:21.013Z,7.70
2018-11-06T00:18:55.445Z,7.70
2018-11-06T00:21:29.064Z,7.70
2018-11-06T00:24:02.668Z,7.70
2018-11-06T00:26:36.375Z,7.70
2018-11-06T00:29:10.860Z,7.80
2018-11-06T00:31:44.560Z,7.70
2018-11-06T00:34:18.287Z,7.80
2018-11-06T00:36:51.857Z,7.80
2018-11-06T00:39:25.507Z,7.80
2018-11-06T00:41:59.297Z,7.80
2018-11-06T00:44:33.852Z,7.70
2018-11-06T00:47:07.489Z,7.70
2018-11-06T00:49:41.214Z,7.60
2018-11-06T00:52:14.829Z,7.60
2018-11-06T00:54:48.409Z,7.60
2018-11-06T00:57:22.118Z,7.60
2018-11-06T00:59:55.872Z,7.60
2018-11-06T01:02:29.660Z,7.60
2018-11-06T01:05:04.181Z,7.50
2018-11-06T01:07:37.872Z,7.50
2018-11-06T01:10:11.724Z,7.40
2018-11-06T01:12:45.245Z,7.40
2018-11-06T01:15:19.587Z,7.40
2018-11-06T01:17:53.134Z,7.40
2018-11-06T01:20:27.644Z,7.40
2018-11-06T01:23:01.207Z,7.40
2018-11-06T01:25:34.922Z,7.40
2018-11-06T01:28:08.586Z,7.40
2018-11-06T01:30:42.322Z,7.30
2018-11-06T01:33:15.970Z,7.40
2018-11-06T01:35:49.712Z,7.40
2018-11-06T01:38:23.533Z,7.30
2018-11-06T01:40:57.154Z,7.30
2018-11-06T01:43:30.941Z,7.30
2018-11-06T01:46:04.661Z,7.30
2018-11-06T01:48:39.075Z,7.20
2018-11-06T01:51:13.476Z,7.20
2018-11-06T01:53:47.174Z,7.20
2018-11-06T01:56:20.807Z,7.20
2018-11-06T01:58:54.485Z,7.20
2018-11-06T02:01:27.997Z,7.20
2018-11-06T02:04:01.547Z,7.20
2018-11-06T02:06:35.081Z,7.10
2018-11-06T02:09:08.664Z,7.10
2018-11-06T02:11:42.236Z,7.00
2018-11-06T02:14:15.902Z,7.00
2018-11-06T02:16:49.501Z,7.00
2018-11-06T02:19:23.088Z,7.00
2018-11-06T02:21:56.692Z,6.90
2018-11-06T02:24:30.329Z,6.90
2018-11-06T02:27:04.098Z,6.90
2018-11-06T02:29:37.799Z,6.80
2018-11-06T02:32:12.270Z,6.80
2018-11-06T02:34:45.905Z,6.80
2018-11-06T02:37:19.531Z,6.80
2018-11-06T02:39:53.168Z,6.90
2018-11-06T02:42:26.998Z,6.90
2018-11-06T02:45:00.790Z,6.90
2018-11-06T02:47:35.268Z,6.70
2018-11-06T02:50:09.020Z,6.70
2018-11-06T02:52:42.570Z,6.70
2018-11-06T02:55:16.093Z,6.70
2018-11-06T02:57:49.795Z,6.70
2018-11-06T03:00:23.416Z,6.70
2018-11-06T03:02:57.061Z,6.70
2018-11-06T03:05:30.679Z,6.70
2018-11-06T03:08:05.198Z,6.60
2018-11-06T03:10:38.781Z,6.60
2018-11-06T03:13:12.317Z,6.60
2018-11-06T03:15:45.907Z,6.60
2018-11-06T03:18:19.564Z,6.60
2018-11-06T03:20:53.345Z,6.60
2018-11-06T03:23:26.949Z,6.60
2018-11-06T03:26:00.763Z,6.60
2018-11-06T03:28:34.406Z,6.60
2018-11-06T03:31:08.007Z,6.60
2018-11-06T03:33:41.613Z,6.60
2018-11-06T03:36:15.385Z,6.50
2018-11-06T03:38:49.025Z,6.60
2018-11-06T03:41:22.556Z,6.50
2018-11-06T03:43:56.255Z,6.50
2018-11-06T03:46:29.861Z,6.50
2018-11-06T03:49:03.646Z,6.50
2018-11-06T03:51:37.247Z,6.40
2018-11-06T03:54:10.877Z,6.40
2018-11-06T03:56:45.056Z,6.40
2018-11-06T03:59:20.262Z,6.40
2018-11-06T04:01:53.829Z,6.40
2018-11-06T04:04:27.370Z,6.50
2018-11-06T04:07:00.972Z,6.50
2018-11-06T04:09:35.304Z,6.40
2018-11-06T04:12:08.951Z,6.40
2018-11-06T04:14:42.497Z,6.40
2018-11-06T04:17:16.878Z,6.20
2018-11-06T04:19:50.663Z,6.20
2018-11-06T04:22:24.234Z,6.20
2018-11-06T04:24:57.827Z,6.20
2018-11-06T04:27:31.453Z,6.30
2018-11-06T04:30:05.265Z,6.30
2018-11-06T04:32:38.896Z,6.30
2018-11-06T04:35:12.565Z,6.30
2018-11-06T04:37:46.189Z,6.30
2018-11-06T04:40:19.885Z,6.30
2018-11-06T04:42:53.705Z,6.30
2018-11-06T04:45:28.035Z,6.30
2018-11-06T04:48:02.651Z,6.30
2018-11-06T04:50:36.446Z,6.30
2018-11-06T04:53:10.242Z,6.30
2018-11-06T04:55:43.837Z,6.30
2018-11-06T04:58:17.573Z,6.20
2018-11-06T05:00:51.390Z,6.20
2018-11-06T05:03:25.196Z,6.20
2018-11-06T05:05:58.910Z,6.20
2018-11-06T05:08:33.303Z,6.20
2018-11-06T05:11:06.986Z,6.10
2018-11-06T05:13:40.606Z,6.10
2018-11-06T05:16:14.467Z,6.20
2018-11-06T05:18:49.004Z,6.30
2018-11-06T05:21:22.781Z,6.20
2018-11-06T05:23:57.255Z,6.30
2018-11-06T05:26:31.027Z,6.30
2018-11-06T05:29:04.617Z,6.30
2018-11-06T05:31:38.343Z,6.30
2018-11-06T05:34:11.993Z,6.30
2018-11-06T05:36:45.550Z,6.20
2018-11-06T05:39:19.928Z,6.10
2018-11-06T05:41:53.596Z,6.10
2018-11-06T05:44:27.304Z,6.00
2018-11-06T05:47:00.897Z,5.90
2018-11-06T05:49:34.695Z,5.90
2018-11-06T05:52:08.293Z,5.80
2018-11-06T05:54:42.086Z,5.80
2018-11-06T05:57:16.750Z,5.90
2018-11-06T05:59:50.566Z,5.90
2018-11-06T06:02:24.346Z,5.90
2018-11-06T06:04:58.093Z,6.00
2018-11-06T06:07:31.747Z,6.00
2018-11-06T06:10:05.469Z,6.00
2018-11-06T06:12:40.601Z,6.00
2018-11-06T06:15:14.324Z,6.00
2018-11-06T06:17:48.164Z,5.90
2018-11-06T06:20:22.015Z,5.80
2018-11-06T06:22:55.887Z,5.80
2018-11-06T06:25:29.653Z,5.80
2018-11-06T06:28:03.206Z,5.80
2018-11-06T06:30:37.712Z,5.90
2018-11-06T06:33:11.519Z,5.80
2018-11-06T06:35:45.291Z,5.90
2018-11-06T06:38:19.082Z,5.90
2018-11-06T06:40:52.702Z,6.00
2018-11-06T06:43:26.394Z,6.00
2018-11-06T06:46:00.108Z,6.00
2018-11-06T06:48:33.933Z,6.10
2018-11-06T06:51:07.672Z,6.20
2018-11-06T06:53:41.331Z,6.20
2018-11-06T06:56:15.026Z,6.20
2018-11-06T06:58:49.069Z,6.20
2018-11-06T07:01:22.811Z,6.30
2018-11-06T07:03:56.635Z,6.20
2018-11-06T07:06:30.530Z,6.30
2018-11-06T07:09:05.229Z,6.40
2018-11-06T07:11:52.954Z,6.50
2018-11-06T07:14:27.422Z,6.50
2018-11-06T07:17:01.129Z,6.50
2018-11-06T07:19:35.607Z,6.60
2018-11-06T07:22:09.377Z,6.60
2018-11-06T07:24:43.324Z,6.60
2018-11-06T07:27:17.006Z,7.10
2018-11-06T07:29:51.334Z,8.30
2018-11-06T07:32:25.039Z,8.30
2018-11-06T07:34:58.811Z,8.90
2018-11-06T07:37:32.344Z,9.50
2018-11-06T07:40:05.975Z,9.90
2018-11-06T07:42:39.715Z,10.60
2018-11-06T07:45:13.439Z,10.60
2018-11-06T07:47:47.103Z,10.70
2018-11-06T07:50:21.715Z,10.90
2018-11-06T07:52:55.234Z,10.90
2018-11-06T07:55:29.101Z,11.40
2018-11-06T07:58:02.759Z,12.00
2018-11-06T08:00:36.604Z,12.20
2018-11-06T08:03:10.386Z,12.20
2018-11-06T08:05:43.964Z,12.40
2018-11-06T08:08:17.520Z,12.20
2018-11-06T08:10:51.532Z,12.20
2018-11-06T08:13:25.407Z,12.50
2018-11-06T08:15:59.886Z,13.00
2018-11-06T08:18:33.640Z,13.00
2018-11-06T08:21:07.213Z,13.50
2018-11-06T08:23:40.806Z,13.60
2018-11-06T08:26:14.390Z,13.40
2018-11-06T08:28:48.012Z,13.60
2018-11-06T08:31:22.126Z,13.70
2018-11-06T08:33:57.295Z,14.00
2018-11-06T08:36:31.124Z,14.00
2018-11-06T08:39:05.687Z,14.00
2018-11-06T08:41:39.346Z,14.00
2018-11-06T08:44:14.342Z,13.20
2018-11-06T08:46:47.909Z,13.20
2018-11-06T08:49:22.387Z,12.20
2018-11-06T08:51:56.939Z,12.10
2018-11-06T08:54:30.672Z,12.00
2018-11-06T08:57:04.275Z,12.10
2018-11-06T08:59:38.097Z,12.10
2018-11-06T09:02:11.900Z,12.20
2018-11-06T09:04:45.580Z,12.60
2018-11-06T09:07:19.383Z,12.70
2018-11-06T09:09:52.920Z,12.80
2018-11-06T09:12:26.604Z,12.70
2018-11-06T09:15:00.475Z,12.70
2018-11-06T09:17:34.293Z,12.60
2018-11-06T09:20:08.749Z,12.20
2018-11-06T09:22:42.543Z,12.20
2018-11-06T09:25:17.197Z,11.80
2018-11-06T09:27:50.852Z,11.80
2018-11-06T09:30:24.642Z,11.80
2018-11-06T09:32:58.317Z,11.80
2018-11-06T09:35:32.873Z,11.70
2018-11-06T09:38:06.569Z,11.70
2018-11-06T09:40:40.183Z,11.90
2018-11-06T09:43:13.766Z,12.10
2018-11-06T09:45:47.364Z,12.10
2018-11-06T09:48:20.926Z,12.20
2018-11-06T09:50:54.803Z,12.20
2018-11-06T09:53:28.557Z,12.20
2018-11-06T09:56:02.300Z,12.40
2018-11-06T09:58:36.120Z,12.40
2018-11-06T10:01:09.739Z,12.50
2018-11-06T10:03:44.239Z,12.70
2018-11-06T10:06:18.067Z,12.60
2018-11-06T10:08:51.595Z,12.80
2018-11-06T10:11:25.384Z,12.90
2018-11-06T10:13:58.951Z,12.80
2018-11-06T10:16:32.761Z,12.60
2018-11-06T10:19:06.595Z,12.70
2018-11-06T10:21:41.194Z,12.90
2018-11-06T10:24:15.737Z,13.00
2018-11-06T10:26:49.402Z,13.00
2018-11-06T10:29:23.275Z,13.20
2018-11-06T10:31:56.823Z,12.90
2018-11-06T10:34:30.558Z,12.80
2018-11-06T10:37:05.165Z,13.00
2018-11-06T10:39:39.760Z,13.00
2018-11-06T10:42:13.338Z,13.10
2018-11-06T10:44:46.975Z,13.20
2018-11-06T10:47:21.628Z,13.30
2018-11-06T10:49:55.366Z,13.30
2018-11-06T10:52:29.142Z,13.30
2018-11-06T10:55:03.754Z,13.40
2018-11-06T10:57:37.456Z,13.30
2018-11-06T11:00:11.239Z,13.40
2018-11-06T11:02:44.828Z,13.50
2018-11-06T11:05:18.645Z,13.50
2018-11-06T11:07:52.556Z,13.50
2018-11-06T11:10:26.236Z,13.70
2018-11-06T11:13:00.143Z,13.80
2018-11-06T11:15:34.722Z,13.70
2018-11-06T11:18:08.373Z,13.70
2018-11-06T11:20:42.275Z,13.80
2018-11-06T11:23:21.108Z,14.00
2018-11-06T11:25:55.048Z,14.00
2018-11-06T11:28:28.809Z,13.90
2018-11-06T11:31:02.481Z,13.90
2018-11-06T11:33:36.859Z,14.00
2018-11-06T11:36:10.501Z,14.00
2018-11-06T11:38:44.377Z,14.10
2018-11-06T11:41:18.129Z,14.20
2018-11-06T11:43:51.877Z,14.30
2018-11-06T11:46:25.454Z,14.30
2018-11-06T11:49:00.007Z,14.20
2018-11-06T11:51:33.808Z,14.20
2018-11-06T11:54:07.732Z,14.30
2018-11-06T11:56:41.345Z,14.30
2018-11-06T11:59:15.201Z,14.40
2018-11-06T12:01:49.267Z,14.40
2018-11-06T12:04:22.959Z,14.50
2018-11-06T12:06:56.529Z,14.60
2018-11-06T12:09:30.163Z,14.60
2018-11-06T12:12:03.874Z,14.50
2018-11-06T12:14:37.534Z,14.60
2018-11-06T12:17:11.274Z,14.70
2018-11-06T12:19:44.923Z,14.80
2018-11-06T12:22:18.725Z,14.80
2018-11-06T12:24:52.472Z,14.80
2018-11-06T12:27:26.194Z,14.90
2018-11-06T12:29:59.801Z,14.90
2018-11-06T12:32:33.575Z,15.00
2018-11-06T12:35:07.252Z,15.00
2018-11-06T12:37:40.970Z,15.00
2018-11-06T12:40:14.615Z,15.00
2018-11-06T12:42:48.949Z,15.10
2018-11-06T12:45:23.433Z,15.10
2018-11-06T12:47:57.160Z,15.10
2018-11-06T12:50:30.871Z,15.10
2018-11-06T12:53:04.614Z,15.20
2018-11-06T12:55:39.217Z,15.30
2018-11-06T12:58:12.908Z,15.30
2018-11-06T13:00:46.556Z,15.40
2018-11-06T13:03:20.193Z,15.50
2018-11-06T13:05:53.856Z,15.60
2018-11-06T13:08:27.539Z,15.70
2018-11-06T13:11:01.162Z,15.70
2018-11-06T13:13:35.511Z,15.70
2018-11-06T13:16:09.139Z,15.70
2018-11-06T13:18:43.244Z,15.70
2018-11-06T13:21:16.978Z,15.60
2018-11-06T13:23:50.796Z,15.50
2018-11-06T13:26:24.829Z,15.40
2018-11-06T13:28:58.276Z,15.40
2018-11-06T13:31:32.073Z,15.40
2018-11-06T13:34:06.489Z,15.40
2018-11-06T13:36:40.093Z,15.40
2018-11-06T13:39:13.908Z,15.40
2018-11-06T13:41:48.312Z,15.40
2018-11-06T13:44:22.358Z,15.40
2018-11-06T13:46:55.730Z,15.30
2018-11-06T13:49:29.513Z,15.20
2018-11-06T13:52:03.339Z,15.30
2018-11-06T13:54:36.895Z,15.30
2018-11-06T13:57:10.709Z,15.30
2018-11-06T13:59:44.309Z,15.30
2018-11-06T14:02:18.132Z,15.20
2018-11-06T14:04:51.844Z,15.20
2018-11-06T14:07:25.506Z,15.20
2018-11-06T14:09:59.164Z,15.20
2018-11-06T14:12:32.761Z,15.20
2018-11-06T14:15:06.504Z,15.20
2018-11-06T14:17:40.074Z,15.20
2018-11-06T14:20:13.797Z,15.30
2018-11-06T14:22:47.630Z,15.20
2018-11-06T14:25:21.503Z,15.20
2018-11-06T14:27:55.863Z,15.20
2018-11-06T14:30:29.626Z,15.20
2018-11-06T14:33:03.280Z,15.10
2018-11-06T14:35:36.907Z,15.10
2018-11-06T14:38:10.500Z,15.10
2018-11-06T14:40:44.267Z,15.10
2018-11-06T14:43:17.874Z,15.00
2018-11-06T14:45:51.519Z,15.00
2018-11-06T14:48:25.446Z,15.00
2018-11-06T14:50:58.955Z,15.00
2018-11-06T14:53:33.492Z,14.80
2018-11-06T14:56:07.192Z,14.80
2018-11-06T14:58:40.973Z,14.80
2018-11-06T15:01:14.803Z,14.70
2018-11-06T15:03:48.601Z,14.70
2018-11-06T15:06:22.357Z,14.60
2018-11-06T15:08:56.134Z,14.50
2018-11-06T15:11:29.931Z,14.50
2018-11-06T15:14:03.709Z,14.40
2018-11-06T15:16:37.548Z,14.40
2018-11-06T15:19:12.102Z,14.20
2018-11-06T15:21:46.717Z,14.20
2018-11-06T15:24:20.457Z,14.20
2018-11-06T15:26:54.231Z,14.10
2018-11-06T15:29:27.851Z,14.00
2018-11-06T15:32:02.251Z,14.00
2018-11-06T15:34:35.755Z,13.90
2018-11-06T15:37:09.400Z,13.90
2018-11-06T15:39:43.240Z,13.80
2018-11-06T15:42:16.864Z,13.70
2018-11-06T15:44:50.718Z,13.70
2018-11-06T15:47:24.506Z,13.60
2018-11-06T15:49:59.170Z,13.50
2018-11-06T15:52:32.861Z,13.50
2018-11-06T15:55:06.630Z,13.40
2018-11-06T15:57:40.211Z,13.30
2018-11-06T16:00:14.062Z,13.20
2018-11-06T16:02:47.840Z,13.10
2018-11-06T16:05:21.691Z,13.10
2018-11-06T16:07:55.379Z,13.00
2018-11-06T16:10:29.115Z,12.90
2018-11-06T16:13:02.857Z,12.90
2018-11-06T16:15:36.423Z,12.80
2018-11-06T16:18:10.194Z,12.80
2018-11-06T16:20:44.565Z,12.70
2018-11-06T16:23:18.184Z,12.70
2018-11-06T16:25:51.835Z,12.70
2018-11-06T16:28:25.610Z,12.70
2018-11-06T16:31:00.009Z,12.80
2018-11-06T16:33:34.396Z,12.90
2018-11-06T16:36:08.143Z,12.90
2018-11-06T16:38:41.877Z,12.90
2018-11-06T16:41:15.550Z,13.10
2018-11-06T16:43:49.379Z,13.10
2018-11-06T16:46:23.020Z,13.20
2018-11-06T16:48:56.679Z,13.10
2018-11-06T16:51:30.285Z,13.20
2018-11-06T16:54:03.831Z,13.20
2018-11-06T16:56:38.322Z,13.20
2018-11-06T16:59:11.982Z,13.20
2018-11-06T17:01:46.138Z,13.20
2018-11-06T17:04:20.117Z,13.20
2018-11-06T17:06:54.479Z,13.10
2018-11-06T17:09:27.987Z,13.10
2018-11-06T17:12:01.611Z,13.00
2018-11-06T17:14:35.387Z,13.10
2018-11-06T17:17:08.884Z,13.00
2018-11-06T17:19:44.998Z,12.90
2018-11-06T17:22:18.559Z,12.80
2018-11-06T17:24:52.131Z,12.70
2018-11-06T17:27:25.686Z,12.70
2018-11-06T17:29:59.313Z,12.60
2018-11-06T17:32:33.918Z,12.50
2018-11-06T17:35:07.404Z,12.50
2018-11-06T17:37:40.981Z,12.40
2018-11-06T17:40:14.937Z,12.30
2018-11-06T17:42:48.652Z,12.20
2018-11-06T17:45:23.011Z,12.10
2018-11-06T17:47:56.614Z,12.10
2018-11-06T17:50:30.258Z,12.00
2018-11-06T17:53:04.043Z,12.00
2018-11-06T17:55:37.654Z,11.90
2018-11-06T17:58:11.219Z,11.90
2018-11-06T18:00:45.036Z,11.90
2018-11-06T18:03:18.872Z,11.80
2018-11-06T18:05:52.583Z,11.70
2018-11-06T18:08:26.174Z,11.70
2018-11-06T18:10:59.869Z,11.70
2018-11-06T18:13:33.599Z,11.70
2018-11-06T18:16:08.132Z,11.70
2018-11-06T18:18:41.755Z,11.70
2018-11-06T18:21:15.431Z,11.70
2018-11-06T18:23:49.142Z,11.70
2018-11-06T18:26:22.822Z,11.70
2018-11-06T18:28:56.464Z,11.60
2018-11-06T18:31:30.129Z,11.60
2018-11-06T18:34:03.753Z,11.50
2018-11-06T18:36:38.367Z,11.50
2018-11-06T18:39:12.168Z,11.50
2018-11-06T18:41:45.800Z,11.50
2018-11-06T18:44:19.620Z,11.40
2018-11-06T18:46:53.470Z,11.40
2018-11-06T18:49:27.079Z,11.40
2018-11-06T18:52:01.680Z,11.40
2018-11-06T18:54:35.423Z,11.30
2018-11-06T18:57:09.114Z,11.30
2018-11-06T18:59:42.700Z,11.40
2018-11-06T19:02:16.430Z,11.30
2018-11-06T19:04:50.074Z,11.30
2018-11-06T19:07:24.618Z,11.20
2018-11-06T19:09:58.205Z,11.20
2018-11-06T19:12:32.012Z,11.20
2018-11-06T19:15:05.711Z,11.20
2018-11-06T19:17:39.705Z,11.20
2018-11-06T19:20:13.435Z,11.10
2018-11-06T19:22:47.073Z,11.10
2018-11-06T19:25:21.588Z,11.00
2018-11-06T19:27:56.062Z,11.00
2018-11-06T19:30:29.861Z,10.90
2018-11-06T19:33:03.563Z,10.90
2018-11-06T19:35:38.143Z,10.90
2018-11-06T19:38:11.917Z,10.90
2018-11-06T19:40:46.311Z,10.80
2018-11-06T19:43:20.704Z,10.70
2018-11-06T19:45:54.622Z,10.70
2018-11-06T19:48:28.335Z,10.70
2018-11-06T19:51:01.939Z,10.70
2018-11-06T19:53:35.786Z,10.70
2018-11-06T19:56:09.431Z,10.70
2018-11-06T19:58:43.206Z,10.70
2018-11-06T20:01:17.048Z,10.70
2018-11-06T20:03:50.620Z,10.60
2018-11-06T20:06:25.179Z,10.50
2018-11-06T20:08:59.720Z,10.50
2018-11-06T20:11:34.319Z,10.50
2018-11-06T20:14:07.979Z,10.50
2018-11-06T20:16:41.882Z,10.40
2018-11-06T20:19:15.613Z,10.40
2018-11-06T20:21:49.336Z,10.40
2018-11-06T20:24:23.913Z,10.30
2018-11-06T20:26:58.352Z,10.30
2018-11-06T20:29:33.013Z,10.30
2018-11-06T20:32:06.872Z,10.30
2018-11-06T20:34:40.596Z,10.20
2018-11-06T20:37:14.313Z,10.10
2018-11-06T20:39:48.112Z,10.10
2018-11-06T20:42:21.821Z,10.10
2018-11-06T20:44:55.464Z,10.00
2018-11-06T20:47:30.204Z,10.00
2018-11-06T20:50:03.867Z,10.00
2018-11-06T20:52:37.691Z,10.00
2018-11-06T20:55:11.337Z,10.00
2018-11-06T20:57:45.055Z,10.00
2018-11-06T21:00:19.590Z,9.90
2018-11-06T21:02:53.422Z,9.90
2018-11-06T21:05:27.182Z,9.80
2018-11-06T21:08:00.844Z,9.80
2018-11-06T21:10:34.780Z,9.80
2018-11-06T21:13:08.481Z,9.80
2018-11-06T21:15:42.393Z,9.70
2018-11-06T21:18:16.024Z,9.70
2018-11-06T21:20:49.662Z,9.80
2018-11-06T21:23:23.407Z,9.80
2018-11-06T21:25:57.237Z,9.80
2018-11-06T21:28:30.998Z,9.80
2018-11-06T21:31:04.854Z,9.80
2018-11-06T21:33:38.671Z,9.80
2018-11-06T21:36:13.320Z,9.70
2018-11-06T21:38:47.669Z,9.70
2018-11-06T21:41:21.475Z,9.70
2018-11-06T21:43:55.059Z,9.70
2018-11-06T21:46:28.717Z,9.70
2018-11-06T21:49:02.343Z,9.70
2018-11-06T21:51:36.070Z,9.70
2018-11-06T21:54:09.954Z,9.60
2018-11-06T21:56:44.462Z,9.60
2018-11-06T21:59:18.168Z,9.60
2018-11-06T22:01:51.922Z,9.60
2018-11-06T22:04:25.569Z,9.50
2018-11-06T22:06:59.348Z,9.50
2018-11-06T22:09:33.747Z,9.50
2018-11-06T22:12:08.251Z,9.50
2018-11-06T22:14:41.794Z,9.50
2018-11-06T22:17:15.349Z,9.50
2018-11-06T22:19:48.907Z,9.40
2018-11-06T22:22:22.729Z,9.40
2018-11-06T22:24:56.198Z,9.30
2018-11-06T22:27:29.832Z,9.30
2018-11-06T22:30:03.426Z,9.30
2018-11-06T22:32:37.907Z,9.30
2018-11-06T22:35:11.504Z,9.30
2018-11-06T22:37:45.193Z,9.30
2018-11-06T22:40:18.845Z,9.40
2018-11-06T22:42:52.662Z,9.40
2018-11-06T22:45:26.435Z,9.30
2018-11-06T22:48:01.012Z,9.20
2018-11-06T22:50:35.594Z,9.20
2018-11-06T22:53:09.397Z,9.20
2018-11-06T22:55:43.712Z,9.20
2018-11-06T22:58:17.454Z,9.20
2018-11-06T23:00:51.257Z,9.20
2018-11-06T23:03:25.843Z,9.10
2018-11-06T23:05:59.830Z,9.10
2018-11-06T23:08:34.038Z,9.10
2018-11-06T23:11:07.613Z,9.10
2018-11-06T23:13:42.214Z,9.10
2018-11-06T23:16:15.905Z,9.10
2018-11-06T23:18:49.752Z,9.00
2018-11-06T23:21:23.565Z,9.00
2018-11-06T23:23:57.280Z,9.00
2018-11-06T23:26:30.968Z,9.00
2018-11-06T23:29:04.558Z,9.00
2018-11-06T23:31:38.340Z,8.90
2018-11-06T23:34:12.068Z,8.90
2018-11-06T23:36:46.233Z,8.90
2018-11-06T23:39:19.869Z,8.90
2018-11-06T23:41:53.444Z,8.90
2018-11-06T23:44:27.169Z,8.90
2018-11-06T23:47:00.921Z,8.90
2018-11-06T23:49:34.460Z,8.90
2018-11-06T23:52:08.224Z,8.90
2018-11-06T23:54:41.992Z,8.90
2018-11-06T23:57:15.669Z,8.80
2018-11-06T23:59:49.984Z,8.80
